Time;durP1;ratioP1;P1;durP2;ratioP2;P2;SDS_P1;SDS_P2;PMS_P1;PMS_P2;Temp;Humidity;BMP_temperature;BMP_pressure;BME280_temperature;BME280_humidity;BME280_pressure;Samples;Min_cycle;Max_cycle;Signal;HPM_P1;HPM_P2
2021/11/12 00:14:26;;;;;;;35.20;16.15;;;;;;;1.92;100.00;95500.66;10483732;28;20064;-75
2021/11/12 00:19:26;;;;;;;36.22;16.95;;;;;;;1.95;100.00;95494.94;10465407;28;20557;-78
2021/11/12 00:24:27;;;;;;;36.40;15.43;;;;;;;1.93;100.00;95494.34;10481946;28;20037;-74
2021/11/12 00:29:27;;;;;;;31.63;16.40;;;;;;;1.69;100.00;95499.16;10464495;28;20105;-75
2021/11/12 00:45:03;;;;;;;31.70;16.65;;;;;;;1.71;100.00;95477.75;10482564;28;20032;-74
2021/11/12 00:55:17;;;;;;;33.90;14.88;;;;;;;1.71;100.00;95475.13;10482843;28;20536;-74
2021/11/12 01:00:19;;;;;;;34.60;15.35;;;;;;;1.75;100.00;95468.41;10460989;28;20056;-74
2021/11/12 01:05:20;;;;;;;33.33;15.10;;;;;;;1.78;100.00;95470.66;10465886;28;20020;-77
2021/11/12 01:10:21;;;;;;;29.92;15.77;;;;;;;1.77;100.00;95466.34;10465925;28;20032;-78
2021/11/12 01:15:21;;;;;;;30.77;14.25;;;;;;;1.79;100.00;95472.28;10489255;28;20029;-78
2021/11/12 01:20:22;;;;;;;31.75;15.68;;;;;;;1.76;100.00;95464.75;10489311;28;20028;-76
2021/11/12 01:25:23;;;;;;;27.45;15.57;;;;;;;1.81;100.00;95470.25;10465770;28;20458;-78
2021/11/12 01:30:23;;;;;;;30.38;13.55;;;;;;;1.82;100.00;95461.28;10465713;28;20208;-73
2021/11/12 01:35:24;;;;;;;38.85;14.48;;;;;;;1.86;100.00;95451.09;10465475;28;20117;-76
2021/11/12 01:40:26;;;;;;;29.13;16.15;;;;;;;1.80;100.00;95458.03;10466109;28;20526;-75
2021/11/12 01:51:06;;;;;;;38.53;14.38;;;;;;;1.78;100.00;95453.94;10456315;28;20045;-74
2021/11/12 02:01:12;;;;;;;29.08;13.60;;;;;;;1.64;100.00;95438.00;10487661;28;20147;-73
2021/11/12 02:06:16;;;;;;;24.83;12.73;;;;;;;1.57;100.00;95431.06;10469996;28;20037;-76
2021/11/12 02:11:17;;;;;;;27.92;14.85;;;;;;;1.46;100.00;95432.44;10468301;28;20159;-74
2021/11/12 02:16:29;;;;;;;30.75;15.50;;;;;;;1.40;100.00;95436.69;10469490;28;20032;-75
2021/11/12 02:21:58;;;;;;;23.65;13.52;;;;;;;1.11;100.00;95429.84;10469404;28;20119;-75
2021/11/12 02:26:56;;;;;;;31.48;15.05;;;;;;;1.15;100.00;95428.44;10486338;28;20036;-74
2021/11/12 02:31:56;;;;;;;26.17;15.30;;;;;;;1.16;100.00;95430.91;10469101;28;20062;-75
2021/11/12 02:36:59;;;;;;;30.77;15.02;;;;;;;1.12;100.00;95428.84;10468109;28;20406;-74
2021/11/12 02:41:59;;;;;;;21.00;12.02;;;;;;;1.16;100.00;95420.31;10485066;28;20059;-78
2021/11/12 02:47:00;;;;;;;25.95;13.18;;;;;;;1.11;100.00;95414.78;10468174;28;20147;-77
2021/11/12 02:52:00;;;;;;;28.70;13.85;;;;;;;1.01;100.00;95417.78;10485621;28;20025;-74
2021/11/12 02:57:03;;;;;;;25.23;13.27;;;;;;;0.88;100.00;95412.44;10467620;28;20034;-79
2021/11/12 03:02:05;;;;;;;20.65;14.07;;;;;;;0.85;100.00;95405.72;10467600;28;20053;-74
2021/11/12 03:07:06;;;;;;;37.08;14.25;;;;;;;0.84;100.00;95409.38;10467278;28;20036;-76
2021/11/12 03:12:07;;;;;;;27.55;12.65;;;;;;;0.79;100.00;95403.03;10458766;28;20028;-73
2021/11/12 03:17:08;;;;;;;30.45;14.88;;;;;;;0.76;100.00;95398.94;10458868;28;20549;-74
2021/11/12 03:22:11;;;;;;;31.42;13.90;;;;;;;0.72;100.00;95405.63;10459596;28;20024;-75
2021/11/12 03:28:05;;;;;;;24.88;14.05;;;;;;;0.53;100.00;95396.56;10458931;28;20082;-74
2021/11/12 05:44:39;;;;;;;;;;;;;;;0.91;100.00;95395.34;10488815;28;20336;-73
2021/11/12 05:50:04;;;;;;;;;;;;;;;0.90;100.00;95399.03;10470294;28;19919;-75
2021/11/12 05:55:08;;;;;;;;;;;;;;;0.97;100.00;95394.56;10488960;28;20290;-75
2021/11/12 06:00:10;;;;;;;;;;;;;;;0.92;100.00;95387.22;10470633;28;19921;-74
2021/11/12 06:05:11;;;;;;;;;;;;;;;0.88;100.00;95393.94;10470170;28;19913;-75
2021/11/12 06:10:12;;;;;;;;;;;;;;;1.06;100.00;95395.22;10488613;28;20460;-81
2021/11/12 06:15:12;;;;;;;;;;;;;;;1.17;100.00;95392.84;10469624;28;19995;-75
2021/11/12 06:20:13;;;;;;;;;;;;;;;1.18;100.00;95396.28;10470816;28;19920;-75
2021/11/12 06:25:13;;;;;;;;;;;;;;;1.36;100.00;95390.44;10469992;28;19912;-79
2021/11/12 06:30:13;;;;;;;;;;;;;;;1.48;100.00;95390.66;10469747;28;19914;-78
2021/11/12 06:35:14;;;;;;;;;;;;;;;1.65;100.00;95393.78;10470290;28;20061;-76
2021/11/12 06:40:20;;;;;;;;;;;;;;;1.83;100.00;95388.72;10468826;28;19993;-74
2021/11/12 06:50:24;;;;;;;;;;;;;;;2.25;100.00;95393.84;10487018;28;19913;-74
2021/11/12 06:55:24;;;;;;;;;;;;;;;2.37;100.00;95383.41;10467670;28;19909;-74
2021/11/12 07:00:25;;;;;;;;;;;;;;;2.59;100.00;95383.19;10467705;28;19924;-74
2021/11/12 07:05:25;;;;;;;;;;;;;;;2.65;100.00;95382.34;10487135;28;19916;-74
2021/11/12 07:10:25;;;;;;;;;;;;;;;3.00;100.00;95374.94;10468172;28;20007;-74
2021/11/12 07:15:26;;;;;;;;;;;;;;;3.25;100.00;95375.03;10467788;28;19916;-74
2021/11/12 07:20:27;;;;;;;;;;;;;;;3.93;100.00;95365.66;10467524;28;19916;-74
2021/11/12 07:25:27;;;;;;;;;;;;;;;4.65;100.00;95353.78;10467766;28;20346;-74
2021/11/12 07:30:29;;;;;;;;;;;;;;;4.91;100.00;95355.34;10485180;28;19909;-74
2021/11/12 07:35:34;;;;;;;;;;;;;;;5.57;100.00;95357.44;10466485;28;19908;-75
2021/11/12 07:51:12;;;;;;;;;;;;;;;8.04;97.70;95333.38;10485241;28;20246;-73
2021/11/12 07:56:14;;;;;;;;;;;;;;;8.48;94.00;95330.88;10467243;28;19908;-75
2021/11/12 08:01:14;;;;;;;;;;;;;;;9.84;81.31;95333.13;10467480;28;19920;-75
2021/11/12 08:06:16;;;;;;;;;;;;;;;11.91;59.87;95306.34;10466382;28;19939;-75
2021/11/12 08:11:21;;;;;;;;;;;;;;;12.30;56.78;95313.13;10449169;28;19915;-75
2021/11/12 08:42:42;;;;;;;;;;;;;;;10.27;75.06;95306.38;10478587;28;20405;-75
2021/11/12 08:47:45;;;;;;;;;;;;;;;10.45;70.69;95302.47;10465416;28;19964;-75
2021/11/12 08:52:48;;;;;;;;;;;;;;;11.10;65.70;95288.88;10465401;28;19912;-78
2021/11/12 08:57:48;;;;;;;;;;;;;;;11.63;60.24;95286.09;10465284;28;19927;-75
2021/11/12 09:02:50;;;;;;;;;;;;;;;11.53;61.59;95283.38;10465134;28;19916;-75
2021/11/12 09:07:51;;;;;;;;;;;;;;;12.12;57.50;95280.25;10482965;28;20145;-73
2021/11/12 09:18:11;;;;;;;;;;;;;;;13.33;51.67;95259.75;10482853;28;19908;-72
2021/11/12 09:23:11;;;;;;;;;;;;;;;13.53;49.74;95262.66;10470909;28;20309;-75
2021/11/12 09:28:12;;;;;;;;;;;;;;;13.64;49.11;95261.50;10472488;28;19916;-73
2021/11/12 09:33:12;;;;;;;;;;;;;;;13.65;48.97;95246.94;10471813;28;20030;-74
2021/11/12 09:38:13;;;;;;;;;;;;;;;13.70;49.29;95235.28;10472159;28;19995;-76
2021/11/12 09:43:14;;;;;;;;;;;;;;;14.41;48.49;95233.09;10471354;28;20514;-77
2021/11/12 09:48:14;;;;;;;;;;;;;;;15.21;46.32;95218.19;10471597;28;19987;-74
2021/11/12 09:53:14;;;;;;;;;;;;;;;15.82;43.98;95204.88;10470852;28;19912;-76
2021/11/12 09:58:15;;;;;;;;;;;;;;;16.18;43.02;95205.09;10470682;28;20381;-74
2021/11/12 10:03:17;;;;;;;;;;;;;;;16.95;40.85;95191.28;10470683;28;20011;-74
2021/11/12 10:08:32;;;;;;;;;;;;;;;18.49;39.10;95187.78;10470457;28;19974;-73
2021/11/12 10:13:37;;;;;;;;;;;;;;;20.97;34.82;95167.34;10470144;28;19916;-74
2021/11/12 10:18:57;;;;;;;;;;;;;;;21.37;32.43;95158.78;10470103;28;19920;-76
2021/11/12 10:23:59;;;;;;;;;;;;;;;22.79;31.15;95151.72;10469996;28;20349;-75
2021/11/12 10:29:00;;;;;;;;;;;;;;;23.21;30.11;95154.28;10469952;28;20387;-79
2021/11/12 10:34:00;;;;;;;;;;;;;;;24.13;29.56;95137.38;10468771;28;19920;-75
2021/11/12 10:39:00;;;;;;;;;;;;;;;23.97;29.07;95127.13;10469287;28;20542;-74
2021/11/12 10:44:10;;;;;;;;;;;;;;;21.30;31.27;95123.75;10468500;28;20024;-73
2021/11/12 10:49:28;;;;;;;;;;;;;;;24.14;28.86;95108.72;10464905;28;19916;-78
2021/11/12 10:54:37;;;;;;;;;;;;;;;25.36;27.49;95103.53;10463982;28;20049;-74
2021/11/12 10:59:57;;;;;;;;;;;;;;;24.13;28.13;95093.44;10455360;28;19920;-78
2021/11/12 11:04:59;;;;;;;;;;;;;;;24.97;26.92;95089.66;10479819;28;19912;-72
2021/11/12 11:10:00;;;;;;;;;;;;;;;25.10;26.77;95082.09;10465551;28;20405;-72
2021/11/12 11:15:16;;;;;;;;;;;;;;;23.20;28.28;95086.84;10456909;28;20333;-75
2021/11/12 11:20:21;;;;;;;;;;;;;;;21.00;31.29;95084.72;10454248;28;20410;-73
2021/11/12 11:25:23;;;;;;;;;;;;;;;19.85;32.51;95078.09;10440234;28;20015;-73
2021/11/12 11:30:24;;;;;;;;;;;;;;;19.06;34.50;95080.84;10447653;28;19915;-77
2021/11/12 11:35:24;;;;;;;;;;;;;;;18.45;35.15;95077.94;10456257;28;19919;-77
2021/11/12 11:40:24;;;;;;;;;;;;;;;17.15;37.25;95082.22;10464137;28;19927;-81
2021/11/12 11:45:25;;;;;;;;;;;;;;;15.82;40.29;95083.75;10454869;28;20423;-73
2021/11/12 11:50:30;;;;;;;;;;;;;;;15.12;41.59;95085.34;10463797;28;19912;-79
2021/11/12 11:55:35;;;;;;;;;;;;;;;15.03;42.25;95090.63;10456752;28;19920;-75
2021/11/12 12:00:35;;;;;;;;;;;;;;;14.59;44.10;95082.81;10465739;28;19928;-75
2021/11/12 12:05:54;;;;;;;;;;;;;;;14.52;44.25;95083.16;10465733;28;19912;-79
2021/11/12 12:11:13;;;;;;;;;;;;;;;14.40;43.79;95074.63;10466893;28;19912;-81
2021/11/12 12:16:21;;;;;;;;;;;;;;;14.17;44.83;95069.75;10465216;28;19908;-75
2021/11/12 12:22:11;;;;;;;;;;;;;;;14.02;45.03;95064.50;10467463;28;19921;-75
2021/11/12 13:18:08;;;;;;;;;;;;;;;13.48;48.10;95053.69;10525109;28;20457;-75
2021/11/12 13:21:30;;;;;;;;;;;;;;;13.11;49.42;95054.22;10473949;28;20011;-75
2021/11/12 13:26:28;;;;;;;;;;;;;;;13.07;49.58;95050.47;10532046;28;20116;-78
2021/11/12 13:31:28;;;;;;;;;;;;;;;12.99;50.57;95044.59;10513232;28;20338;-79
2021/11/12 13:36:31;;;;;;;;;;;;;;;12.93;50.26;95047.59;10513383;28;20395;-74
2021/11/12 13:41:34;;;;;;;;;;;;;;;12.88;50.35;95037.66;10513009;28;19955;-75
2021/11/12 13:46:41;;;;;;;;;;;;;;;12.84;50.35;95047.41;10513198;28;20061;-75
2021/11/12 13:51:42;;;;;;;;;;;;;;;12.80;50.56;95038.25;10512400;28;19980;-75
2021/11/12 13:56:42;;;;;;;;;;;;;;;12.72;50.87;95034.25;10530910;28;19964;-80
2021/11/12 14:01:43;;;;;;;;;;;;;;;12.65;51.94;95039.16;10512137;28;19928;-78
2021/11/12 14:06:43;;;;;;;;;;;;;;;12.60;51.74;95039.16;10511180;28;19912;-77
2021/11/12 14:11:44;;;;;;;;;;;;;;;12.53;53.66;95039.50;10512077;28;20002;-75
2021/11/12 14:36:59;;;;;;;;;;;;;;;11.78;59.94;95049.16;10528913;28;19908;-75
2021/11/12 14:47:25;;;;;;;;;;;;;;;11.42;64.59;95059.97;10529619;28;19908;-76
2021/11/12 14:52:25;;;;;;;;;;;;;;;11.17;70.73;95063.47;10510026;28;19916;-75
2021/11/12 14:57:30;;;;;;;;;;;;;;;11.08;74.92;95065.09;10528187;28;19912;-76
2021/11/12 15:02:31;;;;;;;;;;;;;;;10.92;77.89;95067.75;10509230;28;19923;-75
2021/11/12 15:07:37;;;;;;;;;;;;;;;10.83;79.25;95061.28;10509877;28;19915;-77
2021/11/12 15:12:39;;;;;;;;;;;;;;;10.55;86.63;95067.97;10527538;28;19915;-78
2021/11/12 15:17:41;;;;;;;;;;;;;;;10.41;91.74;95065.75;10509033;28;19930;-79
2021/11/12 15:23:18;;;;;;;;;;;;;;;10.12;95.38;95077.94;10509222;28;20844;-81
2021/11/12 15:33:24;;;;;;;;;;;;;;;10.00;97.23;95089.72;10524590;28;19912;-74
2021/11/12 15:43:41;;;;;;;;;;;;;;;9.63;100.00;95105.84;10442888;28;19976;-78
2021/11/12 15:48:43;;;;;;;;;;;;;;;9.54;100.00;95106.34;10442819;28;20015;-76
2021/11/12 16:25:06;;;;;;;;;;;;;;;8.63;100.00;95129.34;10442038;28;19917;-76
2021/11/12 16:30:07;;;;;;;;;;;;;;;8.43;100.00;95140.63;10445934;28;20042;-74
2021/11/12 16:35:09;;;;;;;;;;;;;;;8.38;100.00;95133.31;10438309;28;19912;-76
2021/11/12 17:01:17;;;;;;;;;;;;;;;7.72;100.00;95145.78;10447423;28;19927;-78
2021/11/12 17:48:07;;;;;;;;;;;;;;;7.07;100.00;95153.31;10448093;28;19909;-74
2021/11/12 18:03:59;;;;;;;;;;;;;;;7.17;95.58;95159.66;10447022;28;19912;-75
2021/11/12 18:20:33;;;;;;;;;;;;;;;7.36;73.67;95162.09;10392343;28;19912;-75
2021/11/12 21:49:30;;;;;;;;;;;;;;;3.41;100.00;95213.50;10447757;28;19909;-74
2021/11/12 21:54:31;;;;;;;;;;;;;;;3.31;100.00;95207.81;10478985;28;19912;-73
2021/11/12 21:59:31;;;;;;;;;;;;;;;3.28;100.00;95210.91;10465515;28;19924;-78
2021/11/12 22:04:32;;;;;;;;;;;;;;;3.30;100.00;95211.53;10465748;28;19923;-75
2021/11/12 22:09:33;;;;;;;;;;;;;;;3.34;100.00;95212.72;10442556;28;19920;-78
2021/11/12 22:14:34;;;;;;;;;;;;;;;3.35;100.00;95201.88;10425461;28;19932;-78
2021/11/12 22:19:35;;;;;;;;;;;;;;;3.32;100.00;95209.47;10428708;28;19916;-74
2021/11/12 22:24:35;;;;;;;;;;;;;;;3.22;100.00;95207.28;10411733;28;19916;-74
2021/11/12 22:29:36;;;;;;;;;;;;;;;3.15;100.00;95209.19;10445754;28;19909;-72
2021/11/12 22:34:36;;;;;;;;;;;;;;;3.17;100.00;95202.63;10427016;28;20031;-78
2021/11/12 22:39:36;;;;;;;;;;;;;;;3.28;100.00;95203.78;10436198;28;19908;-79
2021/11/12 22:44:37;;;;;;;;;;;;;;;3.34;100.00;95199.44;10468189;28;19916;-73
2021/11/12 22:49:37;;;;;;;;;;;;;;;3.24;100.00;95207.91;10486421;28;19913;-75
2021/11/12 22:54:38;;;;;;;;;;;;;;;3.22;100.00;95204.63;10464510;28;19965;-73
2021/11/12 22:59:38;;;;;;;;;;;;;;;3.22;100.00;95201.97;10464869;28;20049;-76
2021/11/12 23:04:39;;;;;;;;;;;;;;;3.10;100.00;95204.53;10464614;28;20283;-78
2021/11/12 23:09:40;;;;;;;;;;;;;;;3.01;100.00;95203.13;10465200;28;19909;-73
2021/11/12 23:14:40;;;;;;;;;;;;;;;3.12;100.00;95205.09;10486738;28;20380;-73
2021/11/12 23:19:41;;;;;;;;;;;;;;;3.10;100.00;95206.34;10465204;28;19908;-76
2021/11/12 23:24:41;;;;;;;;;;;;;;;3.04;100.00;95205.34;10464059;28;19999;-74
2021/11/12 23:29:42;;;;;;;;;;;;;;;2.96;100.00;95213.56;10464261;28;19908;-77
2021/11/12 23:34:42;;;;;;;;;;;;;;;2.81;100.00;95204.06;10463338;28;20037;-73
2021/11/12 23:39:42;;;;;;;;;;;;;;;2.69;100.00;95197.81;10462777;28;19951;-77
2021/11/12 23:44:43;;;;;;;;;;;;;;;2.64;100.00;95206.41;10461280;28;19919;-73
2021/11/12 23:49:43;;;;;;;;;;;;;;;2.64;100.00;95213.56;10465795;28;19969;-73
2021/11/12 23:54:43;;;;;;;;;;;;;;;2.60;100.00;95220.31;10429643;28;19916;-73
2021/11/12 23:59:43;;;;;;;;;;;;;;;2.50;100.00;95218.91;10425054;28;20429;-71
